createdAt,value
2022-08-23T00:00:13.171Z,100726.16
2022-08-23T00:00:35.338Z,100731.72
2022-08-23T00:00:57.150Z,100731.84
2022-08-23T00:01:26.317Z,100726.13
2022-08-23T00:01:53.630Z,100733.72
2022-08-23T00:02:23.135Z,100729.13
2022-08-23T00:02:46.817Z,100730.84
2022-08-23T00:03:08.655Z,100724.56
2022-08-23T00:03:31.120Z,100729.13
2022-08-23T00:03:55.307Z,100729.28
2022-08-23T00:04:22.131Z,100731.84
2022-08-23T00:05:07.621Z,100729.97
2022-08-23T00:05:31.570Z,100726.13
2022-08-23T00:05:53.249Z,100725.97
2022-08-23T00:06:14.985Z,100730.41
2022-08-23T00:06:39.042Z,100738.84
2022-08-23T00:07:01.428Z,100737.13
2022-08-23T00:07:23.493Z,100737.00
2022-08-23T00:07:45.484Z,100738.56
2022-08-23T00:08:07.173Z,100736.69
2022-08-23T00:08:30.365Z,100733.00
2022-08-23T00:08:53.129Z,100736.84
2022-08-23T00:09:15.836Z,100727.69
2022-08-23T00:09:38.621Z,100732.56
2022-08-23T00:10:01.316Z,100730.25
2022-08-23T00:10:23.009Z,100734.41
2022-08-23T00:10:44.678Z,100741.69
2022-08-23T00:11:23.442Z,100738.28
2022-08-23T00:11:47.649Z,100730.97
2022-08-23T00:12:15.653Z,100736.38
2022-08-23T00:12:37.767Z,100738.97
2022-08-23T00:12:59.443Z,100724.09
2022-08-23T00:13:21.768Z,100735.56
2022-08-23T00:13:47.414Z,100731.81
2022-08-23T00:14:12.829Z,100737.25
2022-08-23T00:14:38.744Z,100724.53
2022-08-23T00:15:00.825Z,100725.41
2022-08-23T00:15:23.013Z,100736.38
2022-08-23T00:15:44.688Z,100722.81
2022-08-23T00:16:07.361Z,100726.25
2022-08-23T00:16:29.166Z,100732.84
2022-08-23T00:16:51.424Z,100729.41
2022-08-23T00:17:31.022Z,100736.69
2022-08-23T00:17:56.562Z,100728.66
2022-08-23T00:18:20.437Z,100736.81
2022-08-23T00:18:42.191Z,100729.69
2022-08-23T00:19:14.411Z,100729.69
2022-08-23T00:20:20.299Z,100728.38
2022-08-23T00:20:42.297Z,100725.38
2022-08-23T00:21:05.340Z,100728.81
2022-08-23T00:21:29.255Z,100738.97
2022-08-23T00:21:52.739Z,100736.13
2022-08-23T00:22:15.647Z,100734.25
2022-08-23T00:22:41.471Z,100730.53
2022-08-23T00:23:03.293Z,100727.09
2022-08-23T00:23:25.050Z,100727.97
2022-08-23T00:23:46.769Z,100730.69
2022-08-23T00:24:11.284Z,100729.94
2022-08-23T00:24:38.002Z,100729.69
2022-08-23T00:25:02.224Z,100733.41
2022-08-23T00:25:23.952Z,100727.22
2022-08-23T00:25:45.740Z,100727.41
2022-08-23T00:26:09.212Z,100727.09
2022-08-23T00:26:54.245Z,100731.66
2022-08-23T00:27:17.658Z,100730.13
2022-08-23T00:27:40.091Z,100730.13
2022-08-23T00:28:03.086Z,100723.94
2022-08-23T00:28:24.940Z,100730.25
2022-08-23T00:28:48.252Z,100730.38
2022-08-23T00:29:10.302Z,100725.06
2022-08-23T00:29:35.897Z,100731.34
2022-08-23T00:29:57.915Z,100726.94
2022-08-23T00:30:20.653Z,100716.22
2022-08-23T00:30:43.600Z,100727.06
2022-08-23T00:31:06.538Z,100723.63
2022-08-23T00:31:28.237Z,100728.19
2022-08-23T00:31:50.030Z,100720.22
2022-08-23T00:32:15.791Z,100719.06
2022-08-23T00:32:38.585Z,100718.94
2022-08-23T00:33:00.207Z,100722.34
2022-08-23T00:33:21.883Z,100725.94
2022-08-23T00:33:44.542Z,100716.91
2022-08-23T00:34:06.207Z,100719.94
2022-08-23T00:34:28.661Z,100720.78
2022-08-23T00:34:51.211Z,100716.22
2022-08-23T00:35:26.814Z,100713.38
2022-08-23T00:35:48.916Z,100717.09
2022-08-23T00:36:10.779Z,100715.34
2022-08-23T00:36:32.674Z,100718.06
2022-08-23T00:36:55.883Z,100716.22
2022-08-23T00:37:18.832Z,100709.94
2022-08-23T00:37:41.050Z,100713.63
2022-08-23T00:38:30.407Z,100716.63
2022-08-23T00:38:45.494Z,100714.91
2022-08-23T00:39:07.661Z,100716.03
2022-08-23T00:39:29.373Z,100715.44
2022-08-23T00:39:51.589Z,100714.44
2022-08-23T00:40:17.168Z,100712.59
2022-08-23T00:40:39.065Z,100714.44
2022-08-23T00:41:00.864Z,100715.16
2022-08-23T00:41:22.611Z,100714.44
2022-08-23T00:41:46.916Z,100716.41
2022-08-23T00:42:27.829Z,100710.16
2022-08-23T00:43:12.350Z,100717.28
2022-08-23T00:43:55.567Z,100711.84
2022-08-23T00:44:42.513Z,100713.56
2022-08-23T00:45:23.847Z,100715.59
2022-08-23T00:46:10.965Z,100711.28
2022-08-23T00:47:00.569Z,100717.56
2022-08-23T00:47:41.742Z,100721.28
2022-08-23T00:48:06.434Z,100718.56
2022-08-23T00:48:28.467Z,100714.00
2022-08-23T00:48:51.406Z,100720.69
2022-08-23T00:49:15.471Z,100724.41
2022-08-23T00:49:39.780Z,100718.09
2022-08-23T00:50:23.373Z,100710.25
2022-08-23T00:50:52.733Z,100718.66
2022-08-23T00:51:19.960Z,100712.09
2022-08-23T00:51:53.031Z,100714.94
2022-08-23T00:52:22.892Z,100722.97
2022-08-23T00:52:54.165Z,100712.53
2022-08-23T00:53:20.207Z,100722.84
2022-08-23T00:53:46.726Z,100717.25
2022-08-23T00:54:10.759Z,100720.94
2022-08-23T00:54:35.521Z,100722.69
2022-08-23T00:54:58.273Z,100721.97
2022-08-23T00:55:21.186Z,100728.28
2022-08-23T00:55:47.079Z,100725.56
2022-08-23T00:56:12.888Z,100723.53
2022-08-23T00:56:36.841Z,100726.13
2022-08-23T00:57:02.667Z,100720.69
2022-08-23T00:57:24.457Z,100724.41
2022-08-23T00:57:47.575Z,100721.97
2022-08-23T00:58:09.401Z,100727.84
2022-08-23T00:58:32.495Z,100727.84
2022-08-23T00:58:54.142Z,100728.72
2022-08-23T00:59:19.816Z,100725.13
2022-08-23T00:59:42.990Z,100728.56
2022-08-23T01:00:08.070Z,100732.13
2022-08-23T01:00:30.776Z,100729.69
2022-08-23T01:00:56.078Z,100734.84
2022-08-23T01:01:18.779Z,100734.84
2022-08-23T01:01:42.376Z,100739.28
2022-08-23T01:02:07.562Z,100726.44
2022-08-23T01:02:31.033Z,100732.00
2022-08-23T01:02:53.377Z,100733.72
2022-08-23T01:03:15.068Z,100733.84
2022-08-23T01:03:41.181Z,100732.13
2022-08-23T01:04:05.235Z,100740.41
2022-08-23T01:04:31.679Z,100734.97
2022-08-23T01:04:58.658Z,100734.16
2022-08-23T01:05:25.191Z,100728.72
2022-08-23T01:05:53.237Z,100733.53
2022-08-23T01:06:19.691Z,100736.13
2022-08-23T01:06:47.079Z,100737.84
2022-08-23T01:07:15.259Z,100734.41
2022-08-23T01:07:47.688Z,100736.41
2022-08-23T01:08:09.476Z,100736.25
2022-08-23T01:08:34.321Z,100735.56
2022-08-23T01:09:01.418Z,100740.97
2022-08-23T01:09:24.228Z,100736.41
2022-08-23T01:09:48.708Z,100739.97
2022-08-23T01:10:21.106Z,100741.84
2022-08-23T01:10:48.978Z,100735.25
2022-08-23T01:11:16.021Z,100739.69
2022-08-23T01:11:42.742Z,100744.72
2022-08-23T01:12:08.340Z,100740.28
2022-08-23T01:12:36.877Z,100739.56
2022-08-23T01:13:08.527Z,100747.56
2022-08-23T01:13:38.079Z,100738.84
2022-08-23T01:14:05.616Z,100746.25
2022-08-23T01:14:32.461Z,100739.69
2022-08-23T01:14:59.509Z,100737.13
2022-08-23T01:15:26.148Z,100736.25
2022-08-23T01:15:53.785Z,100742.38
2022-08-23T01:16:21.541Z,100739.78
2022-08-23T01:16:50.817Z,100736.78
2022-08-23T01:17:19.742Z,100735.81
2022-08-23T01:17:46.129Z,100738.69
2022-08-23T01:18:10.572Z,100735.69
2022-08-23T01:18:33.528Z,100736.66
2022-08-23T01:18:57.337Z,100735.97
2022-08-23T01:19:27.207Z,100733.25
2022-08-23T01:19:57.287Z,100732.63
2022-08-23T01:20:27.006Z,100738.06
2022-08-23T01:20:54.580Z,100737.06
2022-08-23T01:21:24.000Z,100743.09
2022-08-23T01:21:53.184Z,100735.97
2022-08-23T01:22:25.348Z,100737.06
2022-08-23T01:22:52.588Z,100736.94
2022-08-23T01:23:25.764Z,100738.81
2022-08-23T01:23:50.362Z,100739.66
2022-08-23T01:24:19.172Z,100729.06
2022-08-23T01:25:06.582Z,100738.34
2022-08-23T01:25:33.806Z,100740.06
2022-08-23T01:25:56.356Z,100741.81
2022-08-23T01:26:21.851Z,100737.50
2022-08-23T01:26:45.105Z,100738.34
2022-08-23T01:27:07.377Z,100745.50
2022-08-23T01:27:29.811Z,100739.09
2022-08-23T01:27:53.851Z,100737.38
2022-08-23T01:28:18.235Z,100736.22
2022-08-23T01:28:40.871Z,100736.22
2022-08-23T01:29:08.308Z,100745.22
2022-08-23T01:29:30.023Z,100739.78
2022-08-23T01:29:52.027Z,100743.38
2022-08-23T01:30:17.750Z,100747.94
2022-08-23T01:30:43.084Z,100747.94
2022-08-23T01:31:06.488Z,100740.78
2022-08-23T01:31:29.480Z,100742.63
2022-08-23T01:31:52.674Z,100742.63
2022-08-23T01:32:14.529Z,100746.22
2022-08-23T01:32:41.840Z,100745.50
2022-08-23T01:33:06.833Z,100746.22
2022-08-23T01:33:31.589Z,100746.94
2022-08-23T01:33:58.584Z,100751.97
2022-08-23T01:34:26.065Z,100736.78
2022-08-23T01:34:51.822Z,100754.69
2022-08-23T01:35:16.822Z,100741.22
2022-08-23T01:35:41.583Z,100746.81
2022-08-23T01:36:04.565Z,100746.41
2022-08-23T01:36:32.986Z,100748.50
2022-08-23T01:36:57.343Z,100743.03
2022-08-23T01:37:21.195Z,100750.06
2022-08-23T01:37:44.661Z,100746.22
2022-08-23T01:38:06.852Z,100743.50
2022-08-23T01:38:32.853Z,100746.22
2022-08-23T01:38:55.897Z,100750.66
2022-08-23T01:39:17.592Z,100754.09
2022-08-23T01:39:39.531Z,100748.91
2022-08-23T01:40:02.893Z,100750.78
2022-08-23T01:40:24.779Z,100744.34
2022-08-23T01:40:47.316Z,100743.50
2022-08-23T01:41:10.297Z,100739.78
2022-08-23T01:41:31.987Z,100740.66
2022-08-23T01:41:54.022Z,100747.81
2022-08-23T01:42:15.790Z,100741.66
2022-08-23T01:42:41.524Z,100741.81
2022-08-23T01:43:05.396Z,100750.94
2022-08-23T01:43:27.451Z,100744.34
2022-08-23T01:43:51.330Z,100751.78
2022-08-23T01:44:14.868Z,100749.50
2022-08-23T01:44:36.778Z,100746.63
2022-08-23T01:44:58.593Z,100752.34
2022-08-23T01:45:20.521Z,100748.88
2022-08-23T01:45:43.851Z,100738.88
2022-08-23T01:46:09.475Z,100746.91
2022-08-23T01:46:32.153Z,100753.31
2022-08-23T01:46:55.042Z,100750.59
2022-08-23T01:47:20.741Z,100745.19
2022-08-23T01:47:43.631Z,100742.75
2022-08-23T01:48:05.655Z,100747.16
2022-08-23T01:48:27.451Z,100750.72
2022-08-23T01:48:51.493Z,100749.28
2022-08-23T01:49:14.125Z,100748.03
2022-08-23T01:49:36.039Z,100734.00
2022-08-23T01:49:57.806Z,100747.03
2022-08-23T01:50:21.625Z,100741.72
2022-08-23T01:50:43.381Z,100756.03
2022-08-23T01:51:05.590Z,100749.03
2022-08-23T01:51:27.834Z,100748.03
2022-08-23T01:51:49.548Z,100748.03
2022-08-23T01:52:12.264Z,100754.47
2022-08-23T01:52:34.769Z,100755.44
2022-08-23T01:52:56.572Z,100751.13
2022-08-23T01:53:19.679Z,100750.56
2022-08-23T01:53:47.396Z,100752.53
2022-08-23T01:54:09.888Z,100756.09
2022-08-23T01:54:31.676Z,100758.25
2022-08-23T01:54:54.029Z,100754.78
2022-08-23T01:55:17.268Z,100754.53
2022-08-23T01:55:40.750Z,100758.13
2022-08-23T01:56:04.022Z,100749.38
2022-08-23T01:56:38.845Z,100759.97
2022-08-23T01:57:06.021Z,100759.97
2022-08-23T01:57:29.006Z,100754.78
2022-08-23T01:57:54.185Z,100761.38
2022-08-23T01:58:17.089Z,100764.81
2022-08-23T01:58:38.996Z,100759.09
2022-08-23T01:59:00.744Z,100761.81
2022-08-23T01:59:27.498Z,100762.81
2022-08-23T01:59:50.818Z,100760.97
2022-08-23T02:00:13.593Z,100753.81
2022-08-23T02:00:38.253Z,100764.94
2022-08-23T02:01:01.887Z,100761.09
2022-08-23T02:01:24.674Z,100759.22
2022-08-23T02:01:49.506Z,100765.81
2022-08-23T02:02:12.236Z,100763.94
2022-08-23T02:02:34.010Z,100760.50
2022-08-23T02:02:56.975Z,100759.63
2022-08-23T02:03:19.541Z,100761.38
2022-08-23T02:03:41.398Z,100757.78
2022-08-23T02:04:05.382Z,100760.63
2022-08-23T02:04:28.675Z,100757.31
2022-08-23T02:04:50.481Z,100766.44
2022-08-23T02:05:12.865Z,100758.31
2022-08-23T02:05:40.151Z,100761.75
2022-08-23T02:06:02.908Z,100767.31
2022-08-23T02:06:24.660Z,100764.25
2022-08-23T02:06:46.467Z,100764.25
2022-08-23T02:07:13.549Z,100769.41
2022-08-23T02:07:37.175Z,100763.13
2022-08-23T02:08:19.554Z,100773.88
2022-08-23T02:09:00.589Z,100764.97
2022-08-23T02:09:25.719Z,100769.31
2022-08-23T02:09:51.186Z,100764.00
2022-08-23T02:10:13.221Z,100771.16
2022-08-23T02:10:34.956Z,100766.13
2022-08-23T02:10:56.802Z,100767.81
2022-08-23T02:11:22.648Z,100764.38
2022-08-23T02:11:46.369Z,100769.81
2022-08-23T02:12:08.321Z,100774.38
2022-08-23T02:12:30.108Z,100771.94
2022-08-23T02:13:02.201Z,100764.78
2022-08-23T02:13:25.695Z,100770.00
2022-08-23T02:13:47.986Z,100769.13
2022-08-23T02:14:13.474Z,100768.03
2022-08-23T02:14:43.627Z,100767.69
2022-08-23T02:15:14.104Z,100765.84
2022-08-23T02:15:39.873Z,100768.53
2022-08-23T02:16:01.703Z,100766.56
2022-08-23T02:16:28.331Z,100763.72
2022-08-23T02:17:03.439Z,100761.75
2022-08-23T02:17:27.848Z,100763.72
2022-08-23T02:17:49.636Z,100763.47
2022-08-23T02:18:11.350Z,100759.44
2022-08-23T02:18:37.794Z,100764.84
2022-08-23T02:19:02.318Z,100769.28
2022-08-23T02:19:24.824Z,100764.84
2022-08-23T02:19:47.698Z,100764.84
2022-08-23T02:20:10.183Z,100764.84
2022-08-23T02:20:31.968Z,100772.25
2022-08-23T02:20:54.337Z,100772.00
2022-08-23T02:21:16.676Z,100766.56
2022-08-23T02:21:40.543Z,100763.28
2022-08-23T02:22:08.355Z,100762.53
2022-08-23T02:22:30.256Z,100760.22
2022-08-23T02:22:51.924Z,100773.66
2022-08-23T02:23:14.616Z,100770.78
2022-08-23T02:23:36.257Z,100770.53
2022-08-23T02:23:58.344Z,100763.41
2022-08-23T02:24:22.874Z,100770.53
2022-08-23T02:24:48.059Z,100770.94
2022-08-23T02:25:10.223Z,100774.47
2022-08-23T02:25:31.888Z,100762.81
2022-08-23T02:25:53.905Z,100768.22
2022-08-23T02:26:16.589Z,100772.53
2022-08-23T02:26:42.637Z,100769.06
2022-08-23T02:27:09.023Z,100762.81
2022-08-23T02:27:35.901Z,100769.69
2022-08-23T02:27:57.597Z,100767.22
2022-08-23T02:28:19.499Z,100753.88
2022-08-23T02:28:41.535Z,100761.94
2022-08-23T02:29:04.760Z,100768.22
2022-08-23T02:29:29.651Z,100771.06
2022-08-23T02:29:52.759Z,100767.38
2022-08-23T02:30:15.186Z,100771.06
2022-08-23T02:30:39.955Z,100766.50
2022-08-23T02:31:04.905Z,100771.78
2022-08-23T02:31:27.835Z,100773.66
2022-08-23T02:31:50.307Z,100773.66
2022-08-23T02:32:15.040Z,100769.06
2022-08-23T02:32:36.936Z,100758.50
2022-08-23T02:32:59.110Z,100762.53
2022-08-23T02:33:22.043Z,100769.69
2022-08-23T02:33:43.965Z,100769.69
2022-08-23T02:34:07.582Z,100768.06
2022-08-23T02:34:31.656Z,100769.81
2022-08-23T02:35:05.251Z,100770.78
2022-08-23T02:35:29.968Z,100771.94
2022-08-23T02:35:51.661Z,100765.63
2022-08-23T02:36:13.361Z,100765.53
2022-08-23T02:36:35.050Z,100769.34
2022-08-23T02:36:58.289Z,100770.31
2022-08-23T02:37:20.284Z,100760.47
2022-08-23T02:37:42.271Z,100764.03
2022-08-23T02:38:04.345Z,100770.47
2022-08-23T02:38:27.052Z,100770.31
2022-08-23T02:38:49.726Z,100774.16
2022-08-23T02:39:12.515Z,100764.91
2022-08-23T02:39:34.303Z,100765.75
2022-08-23T02:39:57.423Z,100766.91
2022-08-23T02:40:20.691Z,100766.75
2022-08-23T02:40:42.759Z,100762.19
2022-08-23T02:41:04.749Z,100768.59
2022-08-23T02:41:27.584Z,100770.47
2022-08-23T02:41:51.862Z,100776.72
2022-08-23T02:42:14.381Z,100764.91
2022-08-23T02:42:38.243Z,100771.19
2022-08-23T02:43:00.083Z,100771.47
2022-08-23T02:43:24.532Z,100774.75
2022-08-23T02:43:46.255Z,100776.72
2022-08-23T02:44:10.933Z,100765.88
2022-08-23T02:44:34.743Z,100768.59
2022-08-23T02:44:59.214Z,100774.16
2022-08-23T02:45:21.405Z,100769.63
2022-08-23T02:45:43.077Z,100776.03
2022-08-23T02:46:06.365Z,100775.03
2022-08-23T02:46:29.052Z,100777.88
2022-08-23T02:46:51.073Z,100780.69
2022-08-23T02:47:12.845Z,100773.81
2022-08-23T02:47:40.649Z,100770.13
2022-08-23T02:48:10.233Z,100778.13
2022-08-23T02:48:52.319Z,100778.00
2022-08-23T02:49:14.163Z,100778.13
2022-08-23T02:49:36.434Z,100776.53
2022-08-23T02:49:59.320Z,100779.25
2022-08-23T02:50:21.641Z,100783.97
2022-08-23T02:50:43.385Z,100778.53
2022-08-23T02:51:07.760Z,100780.38
2022-08-23T02:51:30.984Z,100781.25
2022-08-23T02:51:53.076Z,100774.81
2022-08-23T02:52:15.116Z,100776.81
2022-08-23T02:52:37.565Z,100784.19
2022-08-23T02:53:00.816Z,100779.03
2022-08-23T02:53:22.776Z,100772.75
2022-08-23T02:53:45.538Z,100779.75
2022-08-23T02:54:07.343Z,100772.50
2022-08-23T02:54:30.317Z,100777.19
2022-08-23T02:54:53.271Z,100780.78
2022-08-23T02:55:21.721Z,100780.91
2022-08-23T02:55:46.241Z,100776.72
2022-08-23T02:56:21.200Z,100779.28
2022-08-23T02:56:44.087Z,100778.97
2022-08-23T02:57:06.162Z,100775.50
2022-08-23T02:57:31.611Z,100774.75
2022-08-23T02:57:54.305Z,100777.47
2022-08-23T02:58:16.007Z,100774.75
2022-08-23T02:58:38.226Z,100776.72
2022-08-23T02:59:01.168Z,100778.56
2022-08-23T02:59:23.014Z,100778.31
2022-08-23T02:59:44.665Z,100786.22
2022-08-23T03:00:09.727Z,100781.91
2022-08-23T03:00:32.811Z,100784.38
2022-08-23T03:00:54.512Z,100778.97
2022-08-23T03:01:19.045Z,100781.28
2022-08-23T03:01:41.461Z,100776.84
2022-08-23T03:02:36.606Z,100783.84
2022-08-23T03:02:58.367Z,100786.69
2022-08-23T03:03:22.712Z,100787.69
2022-08-23T03:03:45.743Z,100780.81
2022-08-23T03:04:10.931Z,100780.31
2022-08-23T03:04:32.678Z,100782.84
2022-08-23T03:04:54.633Z,100778.31
2022-08-23T03:05:16.842Z,100783.59
2022-08-23T03:05:39.554Z,100787.19
2022-08-23T03:06:24.851Z,100776.56
2022-08-23T03:06:43.744Z,100778.19
2022-08-23T03:07:06.586Z,100775.47
2022-08-23T03:07:28.777Z,100784.47
2022-08-23T03:07:50.620Z,100788.16
2022-08-23T03:08:13.006Z,100783.72
2022-08-23T03:08:42.225Z,100782.63
2022-08-23T03:09:05.830Z,100784.47
2022-08-23T03:09:27.635Z,100781.75
2022-08-23T03:09:49.373Z,100778.91
2022-08-23T03:10:11.991Z,100780.78
2022-08-23T03:10:45.213Z,100778.91
2022-08-23T03:11:11.885Z,100788.03
2022-08-23T03:11:34.988Z,100794.31
2022-08-23T03:11:57.710Z,100794.31
2022-08-23T03:12:19.398Z,100783.34
2022-08-23T03:12:44.540Z,100788.75
2022-08-23T03:13:06.225Z,100791.63
2022-08-23T03:13:28.913Z,100784.31
2022-08-23T03:13:53.204Z,100784.06
2022-08-23T03:14:15.047Z,100791.22
2022-08-23T03:14:37.948Z,100784.06
2022-08-23T03:15:00.121Z,100790.47
2022-08-23T03:15:22.833Z,100787.03
2022-08-23T03:15:45.152Z,100782.63
2022-08-23T03:16:08.299Z,100786.03
2022-08-23T03:16:30.326Z,100787.88
2022-08-23T03:16:52.967Z,100793.19
2022-08-23T03:17:18.152Z,100783.59
2022-08-23T03:17:40.013Z,100788.16
2022-08-23T03:18:05.201Z,100792.25
2022-08-23T03:18:26.877Z,100787.97
2022-08-23T03:18:49.576Z,100785.09
2022-08-23T03:19:11.394Z,100785.97
2022-08-23T03:19:34.465Z,100796.41
2022-08-23T03:19:56.213Z,100790.28
2022-08-23T03:20:19.729Z,100787.41
2022-08-23T03:20:43.660Z,100784.59
2022-08-23T03:21:09.666Z,100782.75
2022-08-23T03:21:32.482Z,100789.16
2022-08-23T03:21:54.440Z,100786.56
2022-08-23T03:22:16.433Z,100788.28
2022-08-23T03:22:39.075Z,100792.84
2022-08-23T03:23:00.968Z,100788.44
2022-08-23T03:23:22.650Z,100787.81
2022-08-23T03:23:44.624Z,100785.84
2022-08-23T03:24:10.373Z,100787.97
2022-08-23T03:24:33.511Z,100780.81
2022-08-23T03:24:55.279Z,100788.66
2022-08-23T03:25:24.344Z,100791.66
2022-08-23T03:26:01.935Z,100785.09
2022-08-23T03:26:24.864Z,100780.41
2022-08-23T03:26:47.590Z,100788.66
2022-08-23T03:27:11.832Z,100790.41
2022-08-23T03:27:38.274Z,100787.69
2022-08-23T03:28:07.328Z,100785.72
2022-08-23T03:28:34.808Z,100791.50
2022-08-23T03:28:57.409Z,100788.19
2022-08-23T03:29:23.239Z,100787.44
2022-08-23T03:29:54.779Z,100781.28
2022-08-23T03:30:19.630Z,100784.00
2022-08-23T03:30:46.720Z,100777.84
2022-08-23T03:31:09.790Z,100783.13
2022-08-23T03:31:42.437Z,100783.25
2022-08-23T03:32:07.561Z,100786.97
2022-08-23T03:32:32.309Z,100787.97
2022-08-23T03:32:55.318Z,100788.94
2022-08-23T03:33:17.233Z,100784.38
2022-08-23T03:33:42.318Z,100784.25
2022-08-23T03:34:05.389Z,100789.91
2022-08-23T03:34:27.479Z,100786.88
2022-08-23T03:34:49.488Z,100786.72
2022-08-23T03:35:15.231Z,100787.47
2022-08-23T03:35:37.223Z,100788.56
2022-08-23T03:36:00.436Z,100790.44
2022-08-23T03:36:27.919Z,100790.44
2022-08-23T03:36:51.251Z,100788.84
2022-08-23T03:37:13.284Z,100778.50
2022-08-23T03:37:35.037Z,100790.56
2022-08-23T03:38:04.096Z,100791.44
2022-08-23T03:38:25.885Z,100786.72
2022-08-23T03:38:47.626Z,100792.91
2022-08-23T03:39:09.351Z,100788.34
2022-08-23T03:39:32.268Z,100784.19
2022-08-23T03:39:55.218Z,100786.50
2022-08-23T03:40:17.027Z,100789.31
2022-08-23T03:40:38.826Z,100788.47
2022-08-23T03:41:02.952Z,100792.16
2022-08-23T03:41:25.180Z,100796.59
2022-08-23T03:41:47.295Z,100789.22
2022-08-23T03:42:09.170Z,100794.47
2022-08-23T03:42:33.236Z,100787.09
2022-08-23T03:42:55.003Z,100791.66
2022-08-23T03:43:19.493Z,100786.63
2022-08-23T03:43:41.204Z,100791.66
2022-08-23T03:44:04.003Z,100789.81
2022-08-23T03:44:30.219Z,100790.91
2022-08-23T03:44:54.738Z,100791.66
2022-08-23T03:45:24.082Z,100794.34
2022-08-23T03:45:46.607Z,100798.78
2022-08-23T03:46:09.621Z,100799.03
2022-08-23T03:46:34.478Z,100790.78
2022-08-23T03:46:56.722Z,100798.06
2022-08-23T03:47:20.335Z,100794.34
2022-08-23T03:47:46.660Z,100800.53
2022-08-23T03:48:08.744Z,100795.81
2022-08-23T03:48:31.580Z,100798.53
2022-08-23T03:48:55.342Z,100795.09
2022-08-23T03:49:19.972Z,100803.09
2022-08-23T03:49:47.419Z,100800.38
2022-08-23T03:50:09.514Z,100802.22
2022-08-23T03:50:32.415Z,100804.22
2022-08-23T03:50:54.947Z,100806.06
2022-08-23T03:51:19.006Z,100806.56
2022-08-23T03:51:41.128Z,100809.78
2022-08-23T03:52:03.594Z,100809.06
2022-08-23T03:52:26.840Z,100812.63
2022-08-23T03:52:48.824Z,100803.53
2022-08-23T03:53:12.920Z,100815.34
2022-08-23T03:53:36.310Z,100814.84
2022-08-23T03:54:00.897Z,100813.72
2022-08-23T03:54:23.048Z,100811.03
2022-08-23T03:54:47.865Z,100816.59
2022-08-23T03:55:09.921Z,100812.75
2022-08-23T03:55:34.776Z,100811.78
2022-08-23T03:56:06.039Z,100821.63
2022-08-23T03:56:30.917Z,100815.34
2022-08-23T03:56:55.807Z,100822.50
2022-08-23T03:57:18.869Z,100819.50
2022-08-23T03:57:41.068Z,100815.47
2022-08-23T03:58:04.222Z,100817.31
2022-08-23T03:58:27.858Z,100817.06
2022-08-23T03:58:50.189Z,100817.06
2022-08-23T03:59:12.169Z,100817.91
2022-08-23T03:59:35.551Z,100814.22
2022-08-23T04:00:00.744Z,100820.50
2022-08-23T04:00:24.563Z,100816.91
2022-08-23T04:00:49.127Z,100822.34
2022-08-23T04:01:10.948Z,100820.59
2022-08-23T04:01:34.495Z,100822.50
2022-08-23T04:01:56.368Z,100814.97
2022-08-23T04:02:18.470Z,100820.28
2022-08-23T04:02:40.653Z,100814.59
2022-08-23T04:03:06.092Z,100818.44
2022-08-23T04:03:37.119Z,100820.00
2022-08-23T04:04:00.094Z,100825.44
2022-08-23T04:04:23.507Z,100818.28
2022-08-23T04:05:10.909Z,100824.56
2022-08-23T04:05:51.164Z,100829.97
2022-08-23T04:06:15.501Z,100820.75
2022-08-23T04:06:37.649Z,100814.59
2022-08-23T04:07:00.489Z,100823.47
2022-08-23T04:07:22.648Z,100828.72
2022-08-23T04:07:48.490Z,100818.16
2022-08-23T04:08:11.296Z,100829.13
2022-08-23T04:08:37.265Z,100820.59
2022-08-23T04:09:00.206Z,100822.50
2022-08-23T04:09:22.524Z,100825.03
2022-08-23T04:09:44.562Z,100829.38
2022-08-23T04:10:13.650Z,100824.81
2022-08-23T04:10:35.496Z,100826.66
2022-08-23T04:10:57.962Z,100829.38
2022-08-23T04:11:21.834Z,100826.19
2022-08-23T04:11:52.521Z,100824.56
2022-08-23T04:12:17.690Z,100836.25
2022-08-23T04:12:39.954Z,100823.47
2022-08-23T04:13:08.965Z,100826.91
2022-08-23T04:13:32.098Z,100833.31
2022-08-23T04:13:56.519Z,100827.75
2022-08-23T04:14:18.639Z,100827.91
2022-08-23T04:14:40.582Z,100827.16
2022-08-23T04:15:03.356Z,100825.31
2022-08-23T04:15:29.445Z,100831.81
2022-08-23T04:15:51.160Z,100830.63
2022-08-23T04:16:13.908Z,100824.44
2022-08-23T04:16:37.694Z,100831.31
2022-08-23T04:17:00.774Z,100827.53
2022-08-23T04:17:22.583Z,100831.31
2022-08-23T04:17:45.740Z,100832.19
2022-08-23T04:18:07.473Z,100828.63
2022-08-23T04:18:32.004Z,100840.44
2022-08-23T04:18:54.697Z,100841.44
2022-08-23T04:19:18.050Z,100832.47
2022-08-23T04:19:53.773Z,100842.28
2022-08-23T04:20:15.864Z,100837.25
2022-08-23T04:20:52.630Z,100845.25
2022-08-23T04:21:19.942Z,100840.69
2022-08-23T04:21:45.555Z,100839.84
2022-08-23T04:22:12.587Z,100833.81
2022-08-23T04:22:36.743Z,100841.94
2022-08-23T04:22:58.726Z,100842.94
2022-08-23T04:23:22.708Z,100841.94
2022-08-23T04:23:48.126Z,100833.44
2022-08-23T04:24:11.005Z,100838.00
2022-08-23T04:24:32.878Z,100841.47
2022-08-23T04:24:55.934Z,100836.91
2022-08-23T04:25:34.371Z,100839.47
2022-08-23T04:25:58.075Z,100835.06
2022-08-23T04:26:23.066Z,100846.63
2022-08-23T04:26:49.471Z,100843.03
2022-08-23T04:27:12.973Z,100843.19
2022-08-23T04:27:35.936Z,100849.59
2022-08-23T04:27:57.783Z,100844.16
2022-08-23T04:28:20.409Z,100846.72
2022-08-23T04:28:42.398Z,100842.44
2022-08-23T04:29:05.065Z,100853.38
2022-08-23T04:29:33.972Z,100848.34
2022-08-23T04:29:56.674Z,100845.66
2022-08-23T04:30:21.013Z,100851.06
2022-08-23T04:30:45.685Z,100847.00
2022-08-23T04:31:09.273Z,100849.31
2022-08-23T04:31:34.678Z,100850.19
2022-08-23T04:31:58.678Z,100858.22
2022-08-23T04:32:28.143Z,100849.97
2022-08-23T04:32:51.580Z,100847.97
2022-08-23T04:33:17.418Z,100852.41
2022-08-23T04:33:40.968Z,100853.28
2022-08-23T04:34:06.132Z,100855.00
2022-08-23T04:34:28.924Z,100850.44
2022-08-23T04:34:52.005Z,100844.28
2022-08-23T04:35:14.187Z,100852.91
2022-08-23T04:35:35.864Z,100852.16
2022-08-23T04:35:58.146Z,100861.88
2022-08-23T04:36:23.385Z,100858.19
2022-08-23T04:36:50.031Z,100850.94
2022-08-23T04:37:17.788Z,100849.09
2022-08-23T04:37:39.692Z,100857.06
2022-08-23T04:38:03.149Z,100849.09
2022-08-23T04:38:39.747Z,100856.22
2022-08-23T04:39:03.151Z,100845.25
2022-08-23T04:39:25.155Z,100855.81
2022-08-23T04:40:05.690Z,100855.59
2022-08-23T04:40:52.870Z,100851.91
2022-08-23T04:41:33.799Z,100851.03
2022-08-23T04:42:19.297Z,100858.91
2022-08-23T04:42:44.445Z,100857.19
2022-08-23T04:43:08.673Z,100861.88
2022-08-23T04:43:30.727Z,100860.88
2022-08-23T04:43:52.500Z,100862.75